CO34 weather

St Lukes Hospital Heliport
Denver, Colorado, United States

Public forecast

Using degrees Fahrenheit for public forecast. Weather courtesy of forecast.io.

METAR (pilot weather report)

Closest report is Buckley Air Force Base, 10.9 nm (20.2 km) ESE. Retrieved 2019/04/24 16:58 UTC (1 hour ago):

KBKF 241658Z 35003KT 10SM FEW070 SCT100 BKN200 18/M01 A3002 RMK AO2A SLP115 T01771010

TAF (pilot weather forecast)

Forecast is more than 12 hours old.

Closest forecast is Buckley Air Force Base, 10.9 nm (20.2 km) ESE. Retrieved 2019/04/24 01:06 UTC (17 hours ago):

TAF KBKF 240100Z 2401/2507 01006KT 9999 FEW070 FEW200 QNH3000INS BECMG 2404/2405 21006KT 9999 SKC QNH3001INS BECMG 2416/2417 35009KT 9999 FEW060 FEW100 QNH2996INS BECMG 2500/2501 22006KT 9999 FEW060 SCT100 QNH2997INS TX21/2422Z TN05/2412Z